KEWN/EWN METAR and TAF weather

Enter ICAO airport designator
Station Type Date Time Source
KEWN METAR 2019/08/17 10:54 UTC NOAA

KEWN 171054Z 00000KT 10SM SCT021 BKN035 23/23 A3001 RMK AO2 SLP162 T02330233


Station Type Date Time Source
KEWN Decoded METAR 2019/08/17 10:54 UTC NOAA

Station name not available
Aug 17, 2019 - 06:54 AM EDT / 2019.08.17 1054 UTC
Wind: Calm:0
Visibility: 10 mile(s):0
Sky conditions: mostly cloudy
Temperature: 73.9 F (23.3 C)
Dew Point: 73.9 F (23.3 C)
Relative Humidity: 100%
Pressure (altimeter): 30.01 in. Hg (1016 hPa)
ob: KEWN 171054Z 00000KT 10SM SCT021 BKN035 23/23 A3001 RMK AO2 SLP162 T02330233
cycle: 11

Station Type Date Time Source
KEWN TAF 2019/08/17 12:33 UTC NOAA

TAF KEWN 171131Z 1712/1812 19004KT P6SM VCSH BKN035
TEMPO 1712/1716 BKN020
FM180400 19004KT 5SM SHRA BR OVC015

Example: see airport list